KFNT/FNT METAR and TAF weather

Enter ICAO airport designator
Station Type Date Time Source
KFNT METAR 2019/12/07 16:53 UTC NOAA

KFNT 071653Z 19008KT 10SM SCT060 OVC085 M01/M07 A3040 RMK AO2 SLP305 T10061072


Station Type Date Time Source
KFNT Decoded METAR 2019/12/07 16:53 UTC NOAA

FLINT BISHOP INTERNATIONAL AIRPORT, MI, United States (KFNT) 42-58N 83-45W 233M
Dec 07, 2019 - 11:53 AM EST / 2019.12.07 1653 UTC
Wind: from the S (190 degrees) at 9 MPH (8 KT):0
Visibility: 10 mile(s):0
Sky conditions: overcast
Temperature: 30.9 F (-0.6 C)
Windchill: 23 F (-5 C):1
Dew Point: 19.0 F (-7.2 C)
Relative Humidity: 60%
Pressure (altimeter): 30.4 in. Hg (1029 hPa)
ob: KFNT 071653Z 19008KT 10SM SCT060 OVC085 M01/M07 A3040 RMK AO2 SLP305 T10061072
cycle: 17

Station Type Date Time Source
KFNT TAF 2019/12/07 18:22 UTC NOAA

TAF KFNT 071720Z 0718/0818 20007KT P6SM OVC080
FM080200 18013KT P6SM OVC150
FM081500 22014G23KT P6SM OVC015

Example: see airport list